Time;durP1;ratioP1;P1;durP2;ratioP2;P2;SDS_P1;SDS_P2;PMS_P1;PMS_P2;Temp;Humidity;BMP_temperature;BMP_pressure;BME280_temperature;BME280_humidity;BME280_pressure;Samples;Min_cycle;Max_cycle;Signal;HPM_P1;HPM_P2
2022/12/30 00:00:33;;;;;;;13.63;6.55;;;13.50;60.40;;;;;;6030596;29;20140;-73
2022/12/30 00:03:35;;;;;;;15.48;5.85;;;13.50;60.90;;;;;;6028285;29;20139;-74
2022/12/30 00:06:36;;;;;;;13.68;5.78;;;13.40;61.30;;;;;;6036966;29;20033;-73
2022/12/30 00:09:37;;;;;;;19.63;5.65;;;13.30;61.70;;;;;;6055473;29;20041;-73
2022/12/30 00:33:21;;;;;;;12.68;5.75;;;12.90;64.80;;;;;;6053021;29;20037;-73
2022/12/30 00:36:25;;;;;;;13.68;6.88;;;12.90;65.00;;;;;;6029924;29;20053;-72
2022/12/30 00:39:26;;;;;;;18.40;6.53;;;12.90;65.10;;;;;;6015504;29;20049;-73
2022/12/30 00:45:46;;;;;;;15.98;6.03;;;12.90;65.00;;;;;;6037363;29;20064;-73
2022/12/30 00:58:46;;;;;;;14.80;6.97;;;12.90;64.90;;;;;;6048032;29;20052;-74
2022/12/30 01:01:46;;;;;;;20.17;7.35;;;12.90;65.00;;;;;;6031196;29;20105;-74
2022/12/30 01:04:47;;;;;;;19.15;7.07;;;12.90;65.10;;;;;;6062652;29;20047;-73
2022/12/30 01:07:48;;;;;;;28.60;7.28;;;12.90;65.20;;;;;;6031078;29;20459;-74
2022/12/30 01:10:49;;;;;;;19.95;6.55;;;12.90;65.20;;;;;;6053030;29;20037;-74
2022/12/30 01:13:51;;;;;;;12.75;6.15;;;12.90;65.30;;;;;;6053076;29;20033;-74
2022/12/30 01:16:53;;;;;;;17.73;7.07;;;12.90;65.30;;;;;;6037477;29;20044;-73
2022/12/30 01:19:54;;;;;;;14.10;6.25;;;13.00;65.40;;;;;;6022207;29;20419;-73
2022/12/30 01:22:55;;;;;;;18.00;6.78;;;13.00;65.20;;;;;;6023571;29;20037;-73
2022/12/30 01:26:03;;;;;;;17.10;6.95;;;13.00;65.20;;;;;;6023101;29;20060;-73
2022/12/30 01:29:04;;;;;;;15.60;7.10;;;13.10;65.10;;;;;;6053127;29;20044;-73
2022/12/30 01:32:13;;;;;;;12.32;6.70;;;13.10;65.10;;;;;;6050219;29;20405;-74
2022/12/30 01:35:14;;;;;;;18.13;6.78;;;13.10;65.10;;;;;;6050814;29;20039;-73
2022/12/30 01:38:16;;;;;;;13.60;6.47;;;13.10;65.30;;;;;;6062653;29;20040;-73
2022/12/30 01:41:18;;;;;;;17.73;6.60;;;13.10;65.30;;;;;;6077462;29;20121;-73
2022/12/30 01:44:49;;;;;;;12.95;6.82;;;13.10;65.20;;;;;;6044293;29;20036;-74
2022/12/30 01:48:01;;;;;;;23.08;7.93;;;13.10;65.20;;;;;;6058750;29;20109;-74
2022/12/30 01:51:28;;;;;;;16.90;5.97;;;13.10;65.10;;;;;;6031501;29;20061;-74
2022/12/30 01:54:29;;;;;;;18.10;6.72;;;13.20;65.20;;;;;;6027512;29;20601;-74
2022/12/30 01:57:31;;;;;;;12.40;6.75;;;13.10;65.10;;;;;;6005121;29;20054;-74
2022/12/30 02:00:32;;;;;;;16.95;6.57;;;13.10;65.20;;;;;;5981325;29;20042;-73
2022/12/30 02:03:40;;;;;;;13.02;6.55;;;13.20;65.30;;;;;;5985691;29;20187;-73
2022/12/30 02:07:01;;;;;;;15.97;5.97;;;13.10;65.30;;;;;;5981996;29;20034;-72
2022/12/30 02:10:02;;;;;;;13.07;5.60;;;13.10;65.30;;;;;;6028007;29;20271;-72
2022/12/30 02:13:03;;;;;;;11.40;6.07;;;13.10;65.40;;;;;;6012597;29;20037;-72
2022/12/30 02:16:21;;;;;;;16.73;6.63;;;13.00;65.40;;;;;;6007398;29;20030;-73
2022/12/30 02:19:50;;;;;;;12.93;6.07;;;13.00;65.60;;;;;;6006052;29;20127;-72
2022/12/30 02:22:57;;;;;;;23.92;6.07;;;13.00;65.70;;;;;;5997805;29;20431;-73
2022/12/30 02:26:26;;;;;;;11.60;5.57;;;13.00;65.70;;;;;;5989157;29;20129;-71
2022/12/30 02:29:48;;;;;;;13.30;5.60;;;13.00;65.80;;;;;;6005182;29;20102;-73
2022/12/30 02:32:57;;;;;;;13.85;6.18;;;13.00;65.90;;;;;;6003387;29;20052;-74
2022/12/30 02:36:29;;;;;;;15.32;6.35;;;13.00;66.00;;;;;;6004073;29;20034;-73
2022/12/30 02:39:58;;;;;;;13.52;6.25;;;12.90;66.00;;;;;;6003390;29;20456;-73
2022/12/30 02:46:34;;;;;;;12.00;6.18;;;12.90;66.20;;;;;;6023349;29;20053;-73
2022/12/30 02:49:37;;;;;;;12.55;6.60;;;12.90;66.40;;;;;;6044732;29;20048;-73
2022/12/30 02:52:41;;;;;;;12.43;6.88;;;12.80;66.50;;;;;;6028808;29;20113;-73
2022/12/30 02:55:42;;;;;;;12.05;6.20;;;12.80;66.70;;;;;;6054798;29;20044;-73
2022/12/30 02:58:49;;;;;;;19.25;6.45;;;12.80;66.80;;;;;;6040044;29;20132;-73
2022/12/30 03:05:46;;;;;;;14.20;6.32;;;12.70;66.90;;;;;;6035205;29;20049;-73
2022/12/30 03:09:18;;;;;;;12.98;6.18;;;12.80;67.00;;;;;;6003909;29;20053;-74
2022/12/30 03:12:27;;;;;;;12.77;5.57;;;12.80;67.00;;;;;;6054616;29;20037;-74
2022/12/30 03:15:40;;;;;;;17.55;6.93;;;12.70;67.10;;;;;;6047510;29;20043;-73
2022/12/30 03:18:43;;;;;;;11.43;6.13;;;12.70;67.20;;;;;;6023991;29;20514;-73
2022/12/30 03:21:46;;;;;;;12.95;6.43;;;12.70;67.40;;;;;;6044124;29;20029;-73
2022/12/30 03:28:11;;;;;;;15.77;6.93;;;12.70;67.60;;;;;;6056863;29;20037;-73
2022/12/30 03:31:14;;;;;;;14.18;6.18;;;12.70;67.60;;;;;;6042876;29;20048;-74
2022/12/30 03:34:16;;;;;;;15.38;6.30;;;12.70;67.60;;;;;;6041437;29;20390;-73
2022/12/30 03:37:26;;;;;;;9.45;5.32;;;12.60;67.70;;;;;;6040509;29;20177;-73
2022/12/30 03:40:31;;;;;;;16.95;6.28;;;12.60;67.70;;;;;;6027690;29;20041;-73
2022/12/30 03:43:33;;;;;;;16.23;6.20;;;12.50;67.80;;;;;;6053596;29;20048;-73
2022/12/30 03:46:34;;;;;;;12.48;5.88;;;12.50;68.00;;;;;;6051577;29;20043;-73
2022/12/30 03:49:38;;;;;;;13.30;6.15;;;12.40;68.00;;;;;;6053034;29;20045;-72
2022/12/30 03:52:38;;;;;;;12.80;6.65;;;12.40;68.10;;;;;;6037716;29;20470;-73
2022/12/30 03:55:39;;;;;;;13.18;5.97;;;12.40;68.20;;;;;;6038510;29;20041;-73
2022/12/30 03:58:40;;;;;;;17.30;6.85;;;12.30;68.40;;;;;;6018173;29;20045;-73
2022/12/30 04:01:41;;;;;;;12.63;5.97;;;12.30;68.50;;;;;;6003270;29;20048;-73
2022/12/30 04:04:42;;;;;;;13.98;6.57;;;12.30;68.70;;;;;;6036923;29;20343;-73
2022/12/30 04:07:43;;;;;;;17.27;6.68;;;12.30;68.90;;;;;;6054608;29;20466;-73
2022/12/30 04:10:43;;;;;;;13.73;6.00;;;12.20;69.80;;;;;;6055532;29;20061;-73
2022/12/30 04:13:44;;;;;;;13.10;6.10;;;12.20;69.10;;;;;;6038191;29;20072;-73
2022/12/30 04:16:45;;;;;;;16.75;6.03;;;12.20;69.20;;;;;;6077629;29;20188;-73
2022/12/30 04:19:46;;;;;;;13.73;6.38;;;12.20;69.10;;;;;;6061643;29;20044;-73
2022/12/30 04:22:47;;;;;;;12.43;6.80;;;12.30;69.20;;;;;;6078148;29;20044;-72
2022/12/30 04:25:48;;;;;;;13.23;6.47;;;12.20;69.10;;;;;;6030819;29;20101;-73
2022/12/30 04:28:49;;;;;;;21.83;6.25;;;12.20;69.10;;;;;;6055720;29;20056;-73
2022/12/30 04:31:49;;;;;;;10.95;6.20;;;12.20;69.30;;;;;;6049508;29;20044;-73
2022/12/30 04:34:50;;;;;;;13.15;6.88;;;12.20;69.40;;;;;;6036866;29;20036;-73
2022/12/30 04:37:51;;;;;;;16.08;6.75;;;12.20;69.40;;;;;;6052740;29;20053;-73
2022/12/30 04:40:52;;;;;;;16.52;6.20;;;12.20;69.40;;;;;;6035847;29;20037;-73
2022/12/30 04:43:53;;;;;;;11.25;5.82;;;12.30;70.30;;;;;;6034441;29;20046;-73
2022/12/30 04:46:54;;;;;;;14.27;6.68;;;12.30;69.30;;;;;;6058652;29;20029;-72
2022/12/30 04:49:55;;;;;;;15.00;6.50;;;12.30;69.30;;;;;;6075838;29;20045;-73
2022/12/30 04:52:56;;;;;;;11.20;5.80;;;12.20;69.40;;;;;;6059990;29;20033;-73
2022/12/30 04:55:57;;;;;;;10.75;6.03;;;12.20;69.70;;;;;;6061049;29;20136;-74
2022/12/30 04:58:58;;;;;;;13.30;7.32;;;12.10;69.70;;;;;;6038132;29;20045;-73
2022/12/30 05:01:59;;;;;;;11.48;5.50;;;12.10;69.80;;;;;;6015273;29;20048;-73
2022/12/30 05:04:59;;;;;;;15.88;7.95;;;12.20;70.00;;;;;;6035599;29;20177;-73
2022/12/30 05:08:00;;;;;;;15.25;7.20;;;12.20;70.00;;;;;;6037143;29;20037;-74
2022/12/30 05:11:01;;;;;;;14.88;5.82;;;12.20;70.00;;;;;;6022295;29;20120;-73
2022/12/30 05:14:02;;;;;;;16.20;5.82;;;12.20;69.90;;;;;;6054111;29;20033;-73
2022/12/30 05:17:02;;;;;;;12.32;6.13;;;12.10;69.80;;;;;;6053758;29;20041;-74
2022/12/30 05:20:04;;;;;;;16.33;5.80;;;12.10;69.90;;;;;;6052972;29;20486;-73
2022/12/30 05:26:13;;;;;;;12.55;5.93;;;12.10;70.10;;;;;;6050768;29;20470;-73
2022/12/30 05:26:25;;;;;;;17.42;6.00;;;12.10;70.10;;;;;;6054160;29;20124;-73
2022/12/30 05:29:26;;;;;;;9.75;5.45;;;12.10;70.10;;;;;;6052391;29;20043;-73
2022/12/30 05:32:27;;;;;;;15.57;6.22;;;12.10;70.00;;;;;;6034415;29;20056;-73
2022/12/30 05:35:28;;;;;;;10.85;5.35;;;12.20;70.00;;;;;;6051008;29;20032;-73
2022/12/30 05:38:29;;;;;;;14.05;5.93;;;12.20;69.90;;;;;;6019340;29;20053;-73
2022/12/30 05:41:29;;;;;;;21.95;5.88;;;12.20;69.90;;;;;;6019306;29;20033;-73
2022/12/30 05:44:31;;;;;;;13.88;5.85;;;12.20;69.90;;;;;;6055007;29;20127;-73
2022/12/30 05:47:32;;;;;;;13.07;6.25;;;12.10;69.90;;;;;;6044722;29;20033;-73
2022/12/30 05:50:33;;;;;;;13.60;6.07;;;12.10;70.20;;;;;;6075885;29;20470;-73
2022/12/30 05:53:33;;;;;;;12.52;5.43;;;12.00;70.30;;;;;;6044379;29;20101;-74
2022/12/30 05:56:34;;;;;;;11.85;5.75;;;12.00;70.30;;;;;;6074329;29;20032;-73
2022/12/30 05:59:35;;;;;;;13.65;6.00;;;12.00;70.40;;;;;;6033186;29;20041;-73
2022/12/30 06:02:36;;;;;;;13.07;5.25;;;11.90;70.50;;;;;;6039922;29;20037;-73
2022/12/30 06:05:37;;;;;;;15.73;5.65;;;11.90;70.60;;;;;;6036924;29;20041;-73
2022/12/30 06:08:39;;;;;;;16.95;6.43;;;11.90;70.70;;;;;;6036769;29;20081;-72
2022/12/30 06:11:39;;;;;;;13.45;6.05;;;11.90;70.80;;;;;;6037783;29;20478;-72
2022/12/30 06:14:41;;;;;;;12.88;6.15;;;11.90;70.80;;;;;;6029715;29;20060;-72
2022/12/30 06:17:42;;;;;;;10.52;5.95;;;11.90;70.80;;;;;;6061071;29;20036;-72
2022/12/30 06:20:45;;;;;;;14.32;5.72;;;11.90;70.80;;;;;;6064541;29;20053;-72
2022/12/30 06:23:47;;;;;;;12.43;5.47;;;12.00;70.80;;;;;;6035604;29;20040;-72
2022/12/30 06:26:52;;;;;;;15.15;6.65;;;12.10;70.80;;;;;;6050650;29;20065;-73
2022/12/30 06:29:53;;;;;;;13.60;5.75;;;12.10;70.60;;;;;;6047759;29;20068;-73
2022/12/30 06:32:54;;;;;;;14.60;6.07;;;12.20;70.50;;;;;;6057613;29;20552;-73
2022/12/30 06:35:55;;;;;;;12.13;6.00;;;12.20;70.20;;;;;;6057147;29;20495;-74
2022/12/30 06:38:56;;;;;;;16.10;6.15;;;12.20;70.10;;;;;;6038726;29;20053;-73
2022/12/30 06:42:00;;;;;;;11.68;5.30;;;12.20;70.10;;;;;;6035330;29;20051;-72
2022/12/30 06:45:01;;;;;;;9.68;4.85;;;12.20;70.20;;;;;;6032380;29;20033;-74
2022/12/30 06:48:02;;;;;;;17.65;5.90;;;12.20;70.20;;;;;;6056480;29;20096;-73
2022/12/30 06:51:03;;;;;;;13.23;6.25;;;12.10;70.30;;;;;;6085140;29;20041;-72
2022/12/30 06:54:04;;;;;;;11.50;5.78;;;12.10;71.30;;;;;;6067183;29;20117;-71
2022/12/30 06:57:05;;;;;;;14.40;5.97;;;12.10;70.60;;;;;;6051278;29;20119;-74
2022/12/30 07:00:08;;;;;;;13.55;5.43;;;12.10;70.70;;;;;;6032366;29;20028;-71
2022/12/30 07:03:11;;;;;;;13.40;6.57;;;12.00;70.60;;;;;;6023640;29;20071;-73
2022/12/30 07:06:12;;;;;;;11.02;5.38;;;12.10;70.70;;;;;;6041582;29;20037;-71
2022/12/30 07:09:13;;;;;;;8.98;5.60;;;12.10;70.70;;;;;;6048544;29;20474;-72
2022/12/30 07:12:14;;;;;;;13.85;5.22;;;12.10;70.60;;;;;;6062554;29;20036;-72
2022/12/30 07:15:15;;;;;;;11.57;5.80;;;12.10;70.60;;;;;;6060333;29;20056;-72
2022/12/30 07:18:16;;;;;;;15.43;5.72;;;12.10;70.70;;;;;;6029945;29;20131;-72
2022/12/30 07:21:17;;;;;;;13.63;5.85;;;12.10;70.60;;;;;;6039490;29;20037;-73
2022/12/30 07:24:19;;;;;;;15.55;5.55;;;12.20;70.50;;;;;;6041187;29;20367;-72
2022/12/30 07:27:20;;;;;;;13.00;5.72;;;12.20;70.50;;;;;;6015842;29;20041;-73
2022/12/30 07:30:20;;;;;;;10.98;5.22;;;12.20;70.50;;;;;;6040590;29;20427;-73
2022/12/30 07:33:21;;;;;;;11.27;5.40;;;12.20;70.50;;;;;;6044908;29;20048;-73
2022/12/30 07:36:22;;;;;;;13.55;5.53;;;12.10;70.50;;;;;;6021533;29;20371;-73
2022/12/30 07:39:25;;;;;;;12.23;5.90;;;12.20;70.70;;;;;;6053816;29;20045;-72
2022/12/30 07:42:25;;;;;;;16.90;5.57;;;12.20;70.70;;;;;;6039232;29;20420;-74
2022/12/30 07:45:27;;;;;;;12.35;5.57;;;12.10;70.70;;;;;;6062925;29;20539;-73
2022/12/30 07:48:27;;;;;;;16.35;7.05;;;12.10;70.70;;;;;;6045845;29;20052;-73
2022/12/30 07:51:28;;;;;;;11.43;6.18;;;12.10;70.70;;;;;;6061937;29;20470;-73
2022/12/30 07:54:29;;;;;;;9.05;4.93;;;12.10;70.70;;;;;;6060242;29;20052;-73
2022/12/30 07:57:30;;;;;;;10.77;5.57;;;12.10;70.70;;;;;;6058460;29;20044;-72
2022/12/30 08:00:31;;;;;;;16.13;6.20;;;12.10;70.60;;;;;;6018803;29;20037;-72
2022/12/30 08:03:31;;;;;;;16.58;6.03;;;12.20;70.70;;;;;;6025597;29;20056;-73
2022/12/30 08:06:33;;;;;;;12.52;5.40;;;12.30;70.80;;;;;;6054132;29;20044;-74
2022/12/30 08:09:36;;;;;;;11.68;5.60;;;12.30;70.80;;;;;;6061876;29;20044;-73
2022/12/30 08:12:37;;;;;;;14.15;5.40;;;12.30;70.60;;;;;;6053601;29;20041;-73
2022/12/30 08:15:38;;;;;;;10.32;4.90;;;12.30;70.50;;;;;;6053394;29;20101;-73
2022/12/30 08:18:39;;;;;;;14.48;5.53;;;12.30;70.80;;;;;;6022384;29;20045;-72
2022/12/30 08:21:40;;;;;;;12.43;5.55;;;12.40;70.80;;;;;;6024844;29;20172;-72
2022/12/30 08:24:41;;;;;;;12.23;5.75;;;12.50;70.60;;;;;;6066909;29;20041;-74
2022/12/30 08:27:42;;;;;;;10.70;6.07;;;12.60;70.30;;;;;;6020833;29;20471;-73
2022/12/30 08:30:42;;;;;;;15.80;5.97;;;12.70;70.20;;;;;;6051842;29;20045;-73
2022/12/30 08:33:44;;;;;;;10.85;5.20;;;12.80;70.00;;;;;;6020634;29;20431;-74
2022/12/30 08:36:45;;;;;;;19.08;5.63;;;12.80;69.70;;;;;;6054550;29;20040;-73
2022/12/30 08:39:46;;;;;;;15.88;5.50;;;12.90;69.60;;;;;;6037877;29;20037;-74
2022/12/30 08:42:46;;;;;;;9.20;4.70;;;13.00;69.20;;;;;;6037642;29;20048;-73
2022/12/30 08:45:58;;;;;;;11.07;5.45;;;12.90;68.70;;;;;;6033715;29;20049;-73
2022/12/30 08:48:59;;;;;;;14.82;5.63;;;12.90;68.90;;;;;;6014297;29;20127;-73
2022/12/30 08:52:02;;;;;;;9.70;6.13;;;12.90;69.00;;;;;;6013586;29;20124;-74
2022/12/30 08:55:03;;;;;;;13.68;5.50;;;12.90;69.20;;;;;;6030364;29;20122;-73
2022/12/30 08:58:04;;;;;;;14.68;6.03;;;12.90;69.20;;;;;;6020668;29;20113;-73
2022/12/30 09:01:16;;;;;;;13.25;5.82;;;12.90;69.10;;;;;;6030731;29;20034;-73
2022/12/30 09:04:18;;;;;;;10.23;5.45;;;12.90;69.00;;;;;;6052781;29;20040;-72
2022/12/30 09:07:22;;;;;;;10.48;5.90;;;13.00;68.90;;;;;;6031872;29;20050;-73
2022/12/30 09:10:22;;;;;;;14.63;4.97;;;12.90;68.60;;;;;;6052856;29;20127;-74
2022/12/30 09:13:24;;;;;;;10.13;5.75;;;12.90;68.80;;;;;;6072142;29;20040;-75
2022/12/30 09:16:26;;;;;;;12.80;5.93;;;12.90;68.90;;;;;;6061463;29;20064;-73
2022/12/30 09:19:27;;;;;;;12.10;5.82;;;13.00;68.80;;;;;;6063052;29;20037;-74
2022/12/30 09:22:28;;;;;;;9.90;5.72;;;13.00;68.70;;;;;;6079384;29;20477;-73
2022/12/30 09:25:30;;;;;;;9.27;5.28;;;13.00;68.70;;;;;;6062914;29;20041;-73
2022/12/30 09:28:31;;;;;;;12.43;5.72;;;13.10;68.80;;;;;;6022579;29;20386;-73
2022/12/30 09:31:33;;;;;;;10.05;5.18;;;13.20;68.80;;;;;;6052158;29;20044;-74
2022/12/30 09:34:34;;;;;;;10.73;5.45;;;13.30;68.60;;;;;;6039993;29;20083;-75
2022/12/30 09:37:35;;;;;;;13.90;7.00;;;13.40;68.30;;;;;;6052889;29;20045;-73
2022/12/30 09:41:05;;;;;;;16.52;6.18;;;13.40;68.10;;;;;;6053371;29;20349;-74
2022/12/30 09:44:48;;;;;;;13.73;5.68;;;13.50;67.90;;;;;;6052163;29;20522;-75
2022/12/30 09:47:52;;;;;;;15.18;5.80;;;13.60;67.80;;;;;;6017251;29;20053;-73
2022/12/30 09:50:59;;;;;;;14.32;6.85;;;13.60;67.60;;;;;;6010667;29;20073;-74
2022/12/30 09:54:04;;;;;;;18.90;8.07;;;13.70;67.60;;;;;;6027145;29;20041;-73
2022/12/30 10:00:33;;;;;;;15.52;6.85;;;13.80;67.30;;;;;;6050462;29;20044;-75
2022/12/30 10:03:34;;;;;;;11.55;6.47;;;13.90;67.20;;;;;;6031811;29;20034;-74
2022/12/30 10:06:47;;;;;;;13.02;5.75;;;13.90;67.00;;;;;;6059463;29;20061;-74
2022/12/30 10:10:26;;;;;;;30.52;8.95;;;13.90;66.80;;;;;;6014262;29;20044;-74
2022/12/30 10:13:48;;;;;;;18.43;7.67;;;14.10;66.70;;;;;;5986810;29;20776;-75
2022/12/30 10:17:21;;;;;;;22.00;8.63;;;14.00;66.70;;;;;;5952369;29;20050;-73
2022/12/30 10:20:34;;;;;;;17.90;7.25;;;14.00;66.50;;;;;;5939342;29;20038;-74
2022/12/30 10:23:53;;;;;;;15.30;6.93;;;14.10;66.60;;;;;;5979374;29;20091;-73
2022/12/30 10:26:56;;;;;;;8.23;4.78;;;14.10;66.50;;;;;;5968592;29;20042;-73
2022/12/30 10:29:57;;;;;;;12.80;5.68;;;14.10;66.40;;;;;;5981029;29;20104;-74
2022/12/30 10:33:07;;;;;;;21.95;8.95;;;14.10;66.20;;;;;;5981529;29;20047;-74
2022/12/30 10:36:32;;;;;;;21.42;9.55;;;14.10;66.20;;;;;;5982534;29;20133;-74
2022/12/30 10:39:58;;;;;;;21.98;7.80;;;14.10;66.30;;;;;;5981036;29;20050;-74
2022/12/30 10:43:22;;;;;;;17.20;8.02;;;14.10;66.20;;;;;;5968863;29;20090;-74
2022/12/30 10:46:35;;;;;;;33.60;12.13;;;14.00;66.10;;;;;;5978451;29;20503;-73
2022/12/30 10:49:54;;;;;;;14.20;7.05;;;14.00;66.40;;;;;;5991785;29;20117;-74
2022/12/30 10:52:55;;;;;;;23.17;7.97;;;14.00;66.50;;;;;;6017933;29;20492;-74
2022/12/30 10:55:58;;;;;;;22.42;9.27;;;14.00;66.60;;;;;;6020311;29;20045;-73
2022/12/30 10:59:06;;;;;;;33.45;13.02;;;13.90;66.70;;;;;;6004589;29;20049;-74
2022/12/30 11:02:36;;;;;;;27.38;11.98;;;14.00;66.90;;;;;;6003394;29;20049;-73
2022/12/30 11:05:40;;;;;;;22.02;10.57;;;14.00;66.80;;;;;;5993462;29;20047;-74
2022/12/30 11:08:41;;;;;;;18.15;7.10;;;14.00;66.80;;;;;;6003974;29;20038;-74
2022/12/30 11:15:24;;;;;;;14.35;6.88;;;14.00;66.90;;;;;;6020451;29;20384;-73
2022/12/30 11:18:29;;;;;;;18.85;8.27;;;14.00;67.10;;;;;;6003444;29;20046;-73
2022/12/30 11:21:34;;;;;;;20.17;9.30;;;14.00;67.10;;;;;;6007756;29;20049;-73
2022/12/30 11:24:36;;;;;;;29.23;11.35;;;14.00;67.10;;;;;;6020236;29;20042;-73
2022/12/30 11:27:42;;;;;;;16.17;8.10;;;14.00;67.10;;;;;;6007148;29;20249;-75
2022/12/30 11:30:56;;;;;;;31.02;12.52;;;14.10;67.10;;;;;;5986271;29;20033;-73
2022/12/30 11:34:00;;;;;;;32.65;12.50;;;14.10;67.10;;;;;;6005205;29;20060;-74
2022/12/30 11:37:32;;;;;;;20.92;8.98;;;14.10;67.00;;;;;;6003287;29;20466;-72
2022/12/30 11:40:35;;;;;;;22.45;10.02;;;14.10;66.90;;;;;;6002996;29;20491;-73
2022/12/30 11:43:37;;;;;;;15.27;6.50;;;14.10;67.00;;;;;;6005501;29;20038;-75
2022/12/30 11:46:40;;;;;;;23.77;9.38;;;14.10;67.10;;;;;;6006206;29;20414;-73
2022/12/30 11:49:48;;;;;;;23.55;9.27;;;14.10;67.10;;;;;;6005646;29;20494;-73
2022/12/30 11:53:01;;;;;;;23.80;8.63;;;14.10;67.30;;;;;;5988188;29;20041;-74
2022/12/30 11:56:02;;;;;;;22.83;8.77;;;14.10;67.40;;;;;;6016914;29;20098;-73
2022/12/30 11:59:15;;;;;;;13.15;6.28;;;14.20;67.40;;;;;;5986182;29;20613;-74
2022/12/30 12:02:25;;;;;;;11.68;5.28;;;14.20;67.50;;;;;;5979838;29;20046;-74
2022/12/30 12:05:39;;;;;;;14.73;7.00;;;14.20;67.40;;;;;;5983364;29;20341;-74
2022/12/30 12:08:53;;;;;;;13.43;6.95;;;14.30;67.30;;;;;;5979788;29;20431;-73
2022/12/30 12:11:56;;;;;;;27.10;10.38;;;14.30;67.20;;;;;;6007211;29;20038;-75
2022/12/30 12:15:20;;;;;;;19.10;6.75;;;14.30;67.00;;;;;;6017001;29;20057;-75
2022/12/30 12:18:42;;;;;;;18.10;7.60;;;14.30;67.00;;;;;;6028115;29;20431;-74
2022/12/30 12:21:46;;;;;;;32.05;11.93;;;14.40;67.10;;;;;;6024224;29;20444;-74
2022/12/30 12:24:53;;;;;;;40.50;15.43;;;14.40;67.20;;;;;;6006916;29;20381;-74
2022/12/30 12:27:54;;;;;;;29.08;14.02;;;14.40;67.20;;;;;;6005948;29;20046;-77
2022/12/30 12:31:39;;;;;;;33.58;14.10;;;14.50;67.20;;;;;;5981683;29;20053;-75
2022/12/30 12:35:14;;;;;;;25.80;9.27;;;14.50;67.20;;;;;;5956842;29;20053;-75
2022/12/30 12:39:01;;;;;;;21.75;8.20;;;14.60;67.10;;;;;;5960518;29;20126;-74
2022/12/30 12:42:12;;;;;;;12.43;6.22;;;14.60;67.10;;;;;;5977751;29;20034;-75
2022/12/30 12:45:28;;;;;;;17.80;8.23;;;14.60;67.00;;;;;;5968136;29;20049;-75
2022/12/30 12:48:56;;;;;;;16.48;7.00;;;14.60;67.20;;;;;;6027222;29;20052;-75
2022/12/30 12:52:41;;;;;;;15.20;5.65;;;14.60;67.30;;;;;;6057247;29;20192;-75
2022/12/30 12:55:51;;;;;;;23.23;7.13;;;14.60;67.30;;;;;;6043618;29;20062;-74
2022/12/30 12:59:05;;;;;;;25.85;8.82;;;14.60;67.30;;;;;;6039334;29;20056;-74
2022/12/30 13:02:30;;;;;;;19.98;7.78;;;14.60;67.40;;;;;;5998908;29;20041;-74
2022/12/30 13:05:59;;;;;;;11.05;5.80;;;14.60;67.40;;;;;;6029868;29;20057;-74
2022/12/30 13:09:50;;;;;;;15.88;6.45;;;14.60;67.30;;;;;;6059750;29;20049;-74
2022/12/30 13:13:01;;;;;;;;;;;14.60;67.30;;;;;;6004502;29;20042;-74
2022/12/30 13:16:14;;;;;;;10.88;5.32;;;14.70;67.40;;;;;;6004303;29;19959;-74
2022/12/30 13:19:19;;;;;;;13.02;5.35;;;14.70;67.00;;;;;;6004204;29;20464;-75
2022/12/30 13:22:25;;;;;;;17.83;8.32;;;14.70;67.10;;;;;;6005459;29;20056;-75
2022/12/30 13:25:31;;;;;;;50.78;21.00;;;14.70;67.00;;;;;;6004475;29;20468;-74
2022/12/30 13:28:34;;;;;;;29.58;13.15;;;14.70;67.20;;;;;;5981354;29;20067;-75
2022/12/30 13:31:54;;;;;;;19.75;7.50;;;14.70;67.30;;;;;;5964851;29;20046;-75
2022/12/30 13:35:11;;;;;;;17.52;7.30;;;14.70;67.30;;;;;;5987244;29;20040;-74
2022/12/30 13:38:42;;;;;;;21.33;7.80;;;14.70;67.40;;;;;;6000429;29;20046;-75
2022/12/30 13:42:04;;;;;;;23.90;9.55;;;14.80;67.40;;;;;;5997407;29;20114;-75
2022/12/30 13:45:36;;;;;;;11.05;5.88;;;14.80;67.30;;;;;;5999873;29;20425;-74
2022/12/30 13:48:59;;;;;;;12.98;5.88;;;14.80;67.40;;;;;;5879889;30;20126;-74
2022/12/30 13:52:19;;;;;;;21.10;7.05;;;14.80;67.40;;;;;;5889667;30;20067;-75
2022/12/30 13:55:30;;;;;;;11.55;5.57;;;14.80;67.40;;;;;;5875693;30;20060;-77
2022/12/30 13:58:52;;;;;;;14.82;6.20;;;14.80;67.40;;;;;;5877234;30;20352;-75
2022/12/30 14:02:17;;;;;;;17.38;6.20;;;14.80;67.50;;;;;;5905296;30;20470;-75
2022/12/30 14:05:37;;;;;;;19.50;7.20;;;14.80;67.70;;;;;;5888679;30;20474;-74
2022/12/30 14:08:40;;;;;;;12.27;5.63;;;14.80;67.80;;;;;;5888287;30;20062;-74
2022/12/30 14:12:03;;;;;;;22.50;8.57;;;14.80;67.80;;;;;;5889973;30;20044;-74
2022/12/30 14:15:30;;;;;;;20.00;8.27;;;14.80;68.10;;;;;;5888772;30;20107;-74
2022/12/30 14:18:34;;;;;;;17.88;8.10;;;14.80;68.30;;;;;;5889725;30;20052;-74
2022/12/30 14:21:53;;;;;;;14.63;6.05;;;14.80;68.40;;;;;;5891929;30;20075;-75
2022/12/30 14:25:22;;;;;;;29.05;11.20;;;14.80;68.60;;;;;;5942960;29;20046;-75
2022/12/30 14:28:26;;;;;;;35.08;12.57;;;14.80;68.60;;;;;;5985570;29;20045;-74
2022/12/30 14:31:32;;;;;;;19.38;8.00;;;14.80;68.60;;;;;;6015227;29;20136;-74
2022/12/30 14:34:44;;;;;;;14.93;5.18;;;14.80;68.70;;;;;;5989520;29;20042;-75
2022/12/30 14:37:45;;;;;;;12.60;6.30;;;14.80;68.70;;;;;;6017123;29;20201;-74
2022/12/30 14:41:06;;;;;;;14.15;6.68;;;14.80;68.80;;;;;;6025906;29;20467;-74
2022/12/30 14:44:17;;;;;;;17.98;7.55;;;14.80;68.80;;;;;;6000873;29;20062;-75
2022/12/30 14:47:45;;;;;;;17.13;5.35;;;14.80;69.00;;;;;;6018208;29;20056;-75
2022/12/30 14:50:47;;;;;;;14.57;6.00;;;14.80;69.30;;;;;;6028836;29;20447;-75
2022/12/30 14:53:48;;;;;;;18.73;5.93;;;14.80;69.30;;;;;;6029758;29;20049;-75
2022/12/30 14:57:03;;;;;;;8.98;4.72;;;14.70;69.30;;;;;;6029318;29;20038;-75
2022/12/30 15:00:09;;;;;;;12.85;5.65;;;14.70;69.40;;;;;;5999335;29;20476;-75
2022/12/30 15:03:17;;;;;;;30.10;9.98;;;14.60;69.60;;;;;;6013224;29;20071;-74
2022/12/30 15:06:18;;;;;;;19.52;8.18;;;14.60;69.70;;;;;;6007552;29;20827;-74
2022/12/30 15:09:25;;;;;;;20.67;9.45;;;14.60;69.90;;;;;;6006475;29;20046;-75
2022/12/30 15:12:27;;;;;;;21.95;8.35;;;14.60;70.00;;;;;;6006641;29;20065;-75
2022/12/30 15:15:30;;;;;;;20.02;8.95;;;14.60;70.00;;;;;;6008154;29;20192;-74
2022/12/30 15:18:36;;;;;;;20.30;6.80;;;14.60;70.00;;;;;;6013506;29;20041;-73
2022/12/30 15:21:46;;;;;;;16.52;5.78;;;14.60;70.10;;;;;;6028256;29;20060;-74
2022/12/30 15:24:47;;;;;;;16.08;6.05;;;14.60;70.10;;;;;;6018071;29;20117;-73
2022/12/30 15:27:53;;;;;;;22.13;7.15;;;14.60;70.10;;;;;;6005187;29;20045;-74
2022/12/30 15:30:54;;;;;;;15.20;5.78;;;14.60;70.10;;;;;;6005016;29;20050;-74
2022/12/30 15:33:57;;;;;;;11.07;5.05;;;14.60;70.30;;;;;;5988873;29;20069;-74
2022/12/30 15:37:01;;;;;;;9.60;4.68;;;14.50;70.50;;;;;;6004127;29;20044;-74
2022/12/30 15:40:10;;;;;;;10.70;5.28;;;14.50;70.60;;;;;;6007451;29;20074;-74
2022/12/30 15:43:14;;;;;;;11.40;5.38;;;14.50;71.60;;;;;;6006797;29;20041;-74
2022/12/30 15:46:29;;;;;;;10.38;4.82;;;14.60;70.80;;;;;;6013372;29;20042;-74
2022/12/30 15:49:46;;;;;;;14.32;5.43;;;14.60;71.00;;;;;;6030043;29;20083;-74
2022/12/30 15:52:47;;;;;;;9.80;4.47;;;14.60;70.90;;;;;;6028100;29;20034;-74
2022/12/30 15:55:48;;;;;;;15.35;5.68;;;14.60;70.90;;;;;;6014263;29;20055;-74
2022/12/30 15:58:58;;;;;;;18.13;7.38;;;14.60;70.90;;;;;;6014098;29;20046;-74
2022/12/30 16:02:14;;;;;;;16.88;5.68;;;14.70;71.00;;;;;;6001892;29;20115;-73
2022/12/30 16:05:38;;;;;;;22.88;8.30;;;14.70;70.90;;;;;;6001319;29;20045;-74
2022/12/30 16:08:39;;;;;;;8.38;4.55;;;14.70;70.90;;;;;;6004651;29;20045;-76
2022/12/30 16:11:50;;;;;;;14.90;5.10;;;14.70;70.70;;;;;;6005961;29;20054;-75
2022/12/30 16:15:28;;;;;;;13.27;5.07;;;14.80;70.80;;;;;;6005227;29;20042;-75
2022/12/30 16:18:31;;;;;;;16.13;6.38;;;14.80;70.70;;;;;;6011268;29;20054;-74
2022/12/30 16:21:31;;;;;;;19.55;8.18;;;14.80;70.40;;;;;;5988606;29;20531;-75
2022/12/30 16:24:35;;;;;;;18.25;7.50;;;14.90;70.30;;;;;;6005385;29;20483;-75
2022/12/30 16:27:44;;;;;;;15.60;6.68;;;14.80;70.20;;;;;;6005547;29;20121;-74
2022/12/30 16:30:44;;;;;;;17.48;6.57;;;14.90;70.30;;;;;;5997501;29;20037;-75
2022/12/30 16:33:46;;;;;;;12.25;6.45;;;14.90;70.30;;;;;;6006156;29;20465;-73
2022/12/30 16:36:47;;;;;;;16.98;6.80;;;14.90;70.30;;;;;;6008241;29;20034;-73
2022/12/30 16:39:49;;;;;;;26.90;11.02;;;14.90;70.20;;;;;;6007794;29;20042;-74
2022/12/30 16:42:51;;;;;;;15.73;5.30;;;14.90;70.30;;;;;;6007205;29;20125;-75
2022/12/30 16:45:51;;;;;;;19.38;7.07;;;14.90;70.30;;;;;;6009146;29;20121;-73
2022/12/30 16:48:53;;;;;;;13.52;4.90;;;14.90;70.30;;;;;;6037980;29;20044;-75
2022/12/30 16:51:54;;;;;;;13.70;5.30;;;14.90;70.20;;;;;;6045551;29;20045;-75
2022/12/30 16:54:56;;;;;;;11.63;4.90;;;14.90;70.30;;;;;;6031850;29;20110;-74